Time;durP1;ratioP1;P1;durP2;ratioP2;P2;SDS_P1;SDS_P2;PMS_P1;PMS_P2;Temp;Humidity;BMP_temperature;BMP_pressure;BME280_temperature;BME280_humidity;BME280_pressure;Samples;Min_cycle;Max_cycle;Signal;HPM_P1;HPM_P2
2021/05/30 00:00:17;;;;;;;8.82;3.85;;;17.20;77.00;;;;;;5068808;28;20019;-69
2021/05/30 00:02:44;;;;;;;11.82;3.95;;;17.20;76.90;;;;;;5065103;28;20484;-69
2021/05/30 00:05:12;;;;;;;11.82;4.47;;;17.10;76.80;;;;;;5066470;28;20030;-69
2021/05/30 00:07:38;;;;;;;10.70;3.70;;;17.10;76.80;;;;;;5065128;28;20403;-69
2021/05/30 00:10:07;;;;;;;10.15;4.47;;;17.10;76.70;;;;;;5067776;28;20020;-68
2021/05/30 00:12:34;;;;;;;9.55;3.97;;;17.10;76.80;;;;;;5067757;28;20024;-68
2021/05/30 00:15:01;;;;;;;11.60;4.78;;;17.10;76.70;;;;;;5065417;28;20725;-69
2021/05/30 00:17:27;;;;;;;19.95;5.18;;;17.00;76.60;;;;;;5066458;28;20678;-69
2021/05/30 00:19:54;;;;;;;12.63;4.82;;;17.00;76.60;;;;;;5064390;28;20379;-69
2021/05/30 00:22:20;;;;;;;14.38;5.10;;;17.00;76.60;;;;;;5064373;28;20016;-69
2021/05/30 00:24:47;;;;;;;15.73;5.15;;;17.00;76.60;;;;;;5065723;28;20057;-69
2021/05/30 00:27:13;;;;;;;10.90;5.00;;;17.00;76.60;;;;;;5065869;28;20012;-69
2021/05/30 00:29:40;;;;;;;13.43;5.18;;;17.00;76.60;;;;;;5065420;28;20369;-69
2021/05/30 00:32:06;;;;;;;9.35;4.85;;;17.00;76.60;;;;;;5066027;28;20018;-69
2021/05/30 00:34:34;;;;;;;16.20;5.10;;;17.00;76.70;;;;;;5066209;28;20047;-69
2021/05/30 00:37:00;;;;;;;11.60;5.82;;;17.00;76.70;;;;;;5066733;28;20027;-69
2021/05/30 00:39:26;;;;;;;14.45;5.88;;;17.00;77.10;;;;;;5065179;28;20158;-69
2021/05/30 00:41:53;;;;;;;16.33;6.72;;;17.00;76.80;;;;;;5067114;28;20473;-69
2021/05/30 00:44:28;;;;;;;11.40;5.07;;;17.00;76.80;;;;;;5064997;28;20418;-69
2021/05/30 00:46:55;;;;;;;10.75;5.70;;;16.90;76.70;;;;;;5064500;28;20016;-69
2021/05/30 00:49:22;;;;;;;8.10;5.97;;;16.90;76.80;;;;;;5063110;28;20555;-69
2021/05/30 00:51:50;;;;;;;13.57;6.50;;;16.90;76.80;;;;;;5061842;28;20486;-69
2021/05/30 00:54:17;;;;;;;19.40;6.70;;;16.90;76.80;;;;;;5066465;28;20009;-69
2021/05/30 00:56:44;;;;;;;11.73;5.97;;;16.90;76.90;;;;;;5070950;28;21053;-69
2021/05/30 00:59:14;;;;;;;15.60;6.82;;;16.90;76.90;;;;;;5069269;28;20025;-69
2021/05/30 01:01:42;;;;;;;16.65;5.68;;;16.90;76.90;;;;;;5069305;28;20020;-69
2021/05/30 01:04:11;;;;;;;10.15;5.28;;;16.90;76.80;;;;;;5071257;28;20023;-69
2021/05/30 01:06:39;;;;;;;13.13;7.15;;;16.90;76.80;;;;;;5067412;28;20046;-69
2021/05/30 01:09:06;;;;;;;11.32;5.10;;;16.90;76.80;;;;;;5070539;28;20029;-69
2021/05/30 01:11:34;;;;;;;8.63;4.38;;;16.80;76.70;;;;;;5070608;28;20020;-68
2021/05/30 01:14:01;;;;;;;11.93;4.60;;;16.80;76.70;;;;;;5066903;28;20013;-69
2021/05/30 01:16:28;;;;;;;13.88;5.32;;;16.80;76.70;;;;;;5068438;28;20467;-68
2021/05/30 01:18:58;;;;;;;14.38;5.88;;;16.80;76.70;;;;;;5069929;28;20423;-69
2021/05/30 01:21:25;;;;;;;11.77;6.32;;;16.80;76.60;;;;;;5068866;28;20020;-68
2021/05/30 01:23:56;;;;;;;13.38;6.53;;;16.80;76.70;;;;;;5066759;28;20052;-69
2021/05/30 01:26:24;;;;;;;13.90;6.63;;;16.80;76.60;;;;;;5069507;28;20016;-69
2021/05/30 01:28:51;;;;;;;11.52;5.22;;;16.80;76.60;;;;;;5064079;28;20480;-69
2021/05/30 01:31:18;;;;;;;11.05;5.28;;;16.80;76.50;;;;;;5065279;28;20483;-69
2021/05/30 01:33:44;;;;;;;11.43;4.90;;;16.80;76.50;;;;;;5068285;28;20063;-69
2021/05/30 01:36:11;;;;;;;12.57;5.30;;;16.70;76.40;;;;;;5065067;28;20148;-68
2021/05/30 01:38:38;;;;;;;13.20;5.90;;;16.70;76.30;;;;;;5070892;28;20024;-69
2021/05/30 01:41:06;;;;;;;9.20;4.65;;;16.70;76.30;;;;;;5068741;28;20017;-69
2021/05/30 01:43:33;;;;;;;16.20;4.90;;;16.70;76.30;;;;;;5071021;28;20016;-69
2021/05/30 01:46:00;;;;;;;11.93;5.88;;;16.70;76.20;;;;;;5065157;28;20511;-69
2021/05/30 01:48:27;;;;;;;14.20;4.65;;;16.70;76.10;;;;;;5064430;28;20357;-69
2021/05/30 01:50:54;;;;;;;12.18;5.07;;;16.70;76.10;;;;;;5065956;28;20023;-69
2021/05/30 01:53:31;;;;;;;13.98;5.25;;;16.70;76.00;;;;;;5066420;28;20173;-69
2021/05/30 01:58:25;;;;;;;12.07;3.72;;;16.60;76.50;;;;;;5070545;28;20021;-69
2021/05/30 02:00:52;;;;;;;8.13;3.20;;;16.60;75.80;;;;;;5066367;28;20091;-70
2021/05/30 02:03:19;;;;;;;12.05;4.72;;;16.60;75.80;;;;;;5068485;28;20095;-69
2021/05/30 02:05:49;;;;;;;10.98;3.80;;;16.60;75.70;;;;;;5069079;28;20016;-70
2021/05/30 02:08:16;;;;;;;14.00;4.95;;;16.60;75.70;;;;;;5068261;28;20388;-69
2021/05/30 02:10:43;;;;;;;8.68;4.10;;;16.60;75.70;;;;;;5069126;28;20552;-69
2021/05/30 02:13:10;;;;;;;11.40;4.07;;;16.60;75.60;;;;;;5068028;28;20021;-69
2021/05/30 02:15:36;;;;;;;12.15;3.95;;;16.60;76.20;;;;;;5070508;28;20029;-68
2021/05/30 02:18:05;;;;;;;13.55;4.07;;;16.50;75.60;;;;;;5069688;28;20098;-69
2021/05/30 02:20:36;;;;;;;11.68;4.28;;;16.50;75.50;;;;;;5064785;28;20012;-69
2021/05/30 02:23:04;;;;;;;19.25;4.00;;;16.50;75.50;;;;;;5067836;28;20020;-69
2021/05/30 02:25:31;;;;;;;12.38;3.72;;;16.50;75.50;;;;;;5066564;28;20041;-69
2021/05/30 02:27:58;;;;;;;19.42;3.75;;;16.50;75.50;;;;;;5068570;28;20020;-69
2021/05/30 02:30:25;;;;;;;19.92;4.95;;;16.50;75.50;;;;;;5066597;28;20021;-69
2021/05/30 02:32:52;;;;;;;12.82;5.15;;;16.50;75.50;;;;;;5067148;28;20112;-69
2021/05/30 02:35:19;;;;;;;14.68;4.15;;;16.40;75.40;;;;;;5069188;28;20035;-69
2021/05/30 02:37:46;;;;;;;11.90;4.40;;;16.50;75.40;;;;;;5069084;28;20108;-68
2021/05/30 02:40:13;;;;;;;11.27;3.58;;;16.40;75.20;;;;;;5067480;28;20025;-69
2021/05/30 02:42:39;;;;;;;6.95;3.17;;;16.40;75.10;;;;;;5069121;28;20024;-68
2021/05/30 02:45:08;;;;;;;17.80;5.13;;;16.40;75.10;;;;;;5064458;28;20440;-68
2021/05/30 02:47:35;;;;;;;18.52;4.50;;;16.40;75.00;;;;;;5067289;28;20016;-69
2021/05/30 02:50:02;;;;;;;14.77;3.78;;;16.40;74.90;;;;;;5069725;28;20024;-69
2021/05/30 02:52:29;;;;;;;10.95;3.80;;;16.40;74.80;;;;;;5065657;28;20017;-69
2021/05/30 02:54:55;;;;;;;12.88;4.78;;;16.40;74.80;;;;;;5064242;28;20038;-69
2021/05/30 02:57:22;;;;;;;8.98;3.38;;;16.40;74.80;;;;;;5069193;28;20040;-69
2021/05/30 02:59:49;;;;;;;9.48;3.78;;;16.40;74.80;;;;;;5067520;28;20535;-69
2021/05/30 03:02:16;;;;;;;8.20;3.30;;;16.30;74.60;;;;;;5068720;28;20020;-68
2021/05/30 03:04:42;;;;;;;6.13;3.35;;;16.30;74.60;;;;;;5063390;28;20019;-69
2021/05/30 03:07:09;;;;;;;9.13;3.40;;;16.30;74.60;;;;;;5064741;28;20056;-69
2021/05/30 03:09:37;;;;;;;7.93;3.15;;;16.30;74.60;;;;;;5067735;28;20024;-69
2021/05/30 03:12:05;;;;;;;7.50;3.17;;;16.30;74.50;;;;;;5065646;28;20016;-69
2021/05/30 03:14:32;;;;;;;12.13;4.15;;;16.30;74.50;;;;;;5068213;28;20016;-69
2021/05/30 03:16:58;;;;;;;6.45;2.85;;;16.30;75.10;;;;;;5066861;28;20430;-69
2021/05/30 03:19:25;;;;;;;5.43;2.92;;;16.20;74.40;;;;;;5066237;28;20243;-69
2021/05/30 03:21:51;;;;;;;4.93;2.75;;;16.20;74.30;;;;;;5060312;28;20043;-69
2021/05/30 03:24:18;;;;;;;5.35;2.97;;;16.20;74.30;;;;;;5067202;28;20036;-68
2021/05/30 03:26:44;;;;;;;5.45;2.72;;;16.20;74.30;;;;;;5065727;28;20448;-69
2021/05/30 03:29:10;;;;;;;8.02;4.57;;;16.20;74.30;;;;;;5065935;28;20383;-69
2021/05/30 03:31:37;;;;;;;4.93;2.20;;;16.20;74.30;;;;;;5067966;28;20023;-69
2021/05/30 03:34:03;;;;;;;10.60;2.80;;;16.20;74.20;;;;;;5066371;28;20021;-69
2021/05/30 03:36:32;;;;;;;9.10;2.35;;;16.20;74.10;;;;;;5067638;28;20062;-68
2021/05/30 03:39:04;;;;;;;12.30;3.17;;;16.10;74.10;;;;;;5065697;28;20107;-69
2021/05/30 03:41:41;;;;;;;7.00;2.90;;;16.10;74.00;;;;;;5067298;28;20552;-68
2021/05/30 03:44:09;;;;;;;5.72;3.15;;;16.10;74.00;;;;;;5062063;28;20495;-68
2021/05/30 03:46:39;;;;;;;10.15;2.75;;;16.10;74.00;;;;;;5066601;28;20083;-69
2021/05/30 03:49:09;;;;;;;6.07;2.88;;;16.10;74.10;;;;;;5065729;28;20029;-68
2021/05/30 03:51:35;;;;;;;9.18;2.80;;;16.00;73.90;;;;;;5066100;28;20427;-68
2021/05/30 03:54:02;;;;;;;11.25;4.38;;;16.10;73.90;;;;;;5068195;28;20488;-69
2021/05/30 03:56:29;;;;;;;10.65;4.63;;;16.10;74.00;;;;;;5065680;28;20024;-69
2021/05/30 03:58:57;;;;;;;11.55;6.05;;;16.10;73.90;;;;;;5067929;28;20021;-69
2021/05/30 04:01:24;;;;;;;11.50;5.68;;;16.10;73.90;;;;;;5064135;28;20688;-69
2021/05/30 04:03:50;;;;;;;9.93;5.18;;;16.10;73.80;;;;;;5066287;28;20024;-69
2021/05/30 04:06:17;;;;;;;10.10;4.63;;;16.00;73.80;;;;;;5067416;28;20023;-69
2021/05/30 04:08:46;;;;;;;6.95;3.63;;;16.00;73.80;;;;;;5066743;28;20024;-69
2021/05/30 04:11:13;;;;;;;8.77;4.05;;;16.00;73.90;;;;;;5067112;28;20468;-69
2021/05/30 04:13:39;;;;;;;9.05;4.28;;;16.00;73.90;;;;;;5062461;28;20049;-68
2021/05/30 04:16:06;;;;;;;9.80;3.75;;;16.00;73.90;;;;;;5066792;28;20060;-69
2021/05/30 04:18:33;;;;;;;7.57;3.38;;;16.00;73.80;;;;;;5066874;28;20127;-69
2021/05/30 04:20:59;;;;;;;11.07;4.05;;;15.90;73.80;;;;;;5067836;28;20119;-68
2021/05/30 04:23:26;;;;;;;7.97;3.30;;;15.90;74.00;;;;;;5066872;28;20021;-69
2021/05/30 04:25:52;;;;;;;11.02;4.18;;;15.90;73.70;;;;;;5066941;28;20438;-68
2021/05/30 04:28:20;;;;;;;7.32;3.85;;;15.90;73.70;;;;;;5067475;28;20016;-70
2021/05/30 04:30:46;;;;;;;6.07;3.50;;;15.90;73.70;;;;;;5070214;28;20052;-70
2021/05/30 04:33:12;;;;;;;12.18;8.00;;;15.90;73.50;;;;;;5071655;28;20020;-70
2021/05/30 04:35:39;;;;;;;17.35;9.38;;;15.90;73.50;;;;;;5071147;28;20469;-69
2021/05/30 04:38:06;;;;;;;15.43;8.82;;;15.90;73.60;;;;;;5071053;28;20641;-69
2021/05/30 04:40:32;;;;;;;13.07;7.45;;;15.80;73.60;;;;;;5074011;28;20528;-69
2021/05/30 04:42:59;;;;;;;11.52;6.38;;;15.90;73.50;;;;;;5073395;28;20079;-69
2021/05/30 04:45:25;;;;;;;7.35;5.50;;;15.80;73.50;;;;;;5072465;28;20357;-69
2021/05/30 04:47:52;;;;;;;6.97;5.38;;;15.80;73.50;;;;;;5069500;28;20047;-69
2021/05/30 04:50:18;;;;;;;9.18;5.35;;;15.80;73.60;;;;;;5072985;28;20021;-68
2021/05/30 04:52:45;;;;;;;7.60;4.43;;;15.80;73.40;;;;;;5072941;28;20103;-69
2021/05/30 04:55:12;;;;;;;6.82;4.57;;;15.80;73.40;;;;;;5069312;28;20032;-69
2021/05/30 04:57:43;;;;;;;7.75;4.78;;;15.70;73.30;;;;;;5069096;28;20076;-71
2021/05/30 05:00:11;;;;;;;6.72;4.10;;;15.80;73.30;;;;;;5072785;28;20016;-69
2021/05/30 05:02:37;;;;;;;7.55;4.50;;;15.80;73.20;;;;;;5072267;28;20020;-69
2021/05/30 05:05:05;;;;;;;12.70;8.80;;;15.70;73.20;;;;;;5070591;28;20082;-67
2021/05/30 05:07:32;;;;;;;10.40;8.68;;;15.70;73.20;;;;;;5073005;28;20075;-69
2021/05/30 05:09:58;;;;;;;9.95;7.03;;;15.70;73.20;;;;;;5072685;28;20016;-68
2021/05/30 05:12:25;;;;;;;8.13;5.45;;;15.70;73.20;;;;;;5075233;28;20518;-69
2021/05/30 05:14:52;;;;;;;6.47;5.15;;;15.70;73.10;;;;;;5068703;28;20025;-68
2021/05/30 05:17:18;;;;;;;5.22;3.92;;;15.70;73.20;;;;;;5071317;28;20017;-68
2021/05/30 05:19:44;;;;;;;8.43;4.05;;;15.70;73.20;;;;;;5071358;28;20016;-68
2021/05/30 05:22:11;;;;;;;5.20;4.18;;;15.60;73.00;;;;;;5069285;28;20017;-69
2021/05/30 05:24:37;;;;;;;7.70;4.28;;;15.60;73.00;;;;;;5069808;28;20032;-68
2021/05/30 05:27:05;;;;;;;8.75;4.93;;;15.60;73.00;;;;;;5072292;28;20013;-68
2021/05/30 05:29:31;;;;;;;8.60;5.65;;;15.60;73.00;;;;;;5073266;28;20460;-69
2021/05/30 05:31:57;;;;;;;9.23;5.63;;;15.60;73.00;;;;;;5069706;28;20021;-69
2021/05/30 05:34:24;;;;;;;7.60;5.22;;;15.60;73.00;;;;;;5073784;28;20019;-69
2021/05/30 05:36:50;;;;;;;6.90;5.50;;;15.60;73.00;;;;;;5072466;28;20048;-69
2021/05/30 05:39:17;;;;;;;19.40;12.35;;;15.60;73.10;;;;;;5071635;28;20017;-70
2021/05/30 05:41:44;;;;;;;16.40;13.35;;;15.60;73.10;;;;;;5068454;28;20024;-69
2021/05/30 05:44:11;;;;;;;10.98;9.38;;;15.60;73.10;;;;;;5067368;28;20020;-69
2021/05/30 05:46:37;;;;;;;10.77;8.60;;;15.50;73.00;;;;;;5065293;28;20016;-70
2021/05/30 05:49:04;;;;;;;11.35;7.30;;;15.50;73.00;;;;;;5066789;28;20067;-69
2021/05/30 05:51:30;;;;;;;8.70;6.50;;;15.60;73.00;;;;;;5068847;28;20017;-68
2021/05/30 05:53:57;;;;;;;9.90;6.57;;;15.50;72.90;;;;;;5068946;28;20435;-68
2021/05/30 05:57:03;;;;;;;9.75;7.18;;;15.50;73.00;;;;;;5063092;28;20051;-68
2021/05/30 05:59:29;;;;;;;8.73;5.78;;;15.50;72.90;;;;;;5065067;28;20017;-68
2021/05/30 06:01:56;;;;;;;9.23;5.78;;;15.50;73.00;;;;;;5040615;28;20374;-68
2021/05/30 06:04:24;;;;;;;8.30;5.90;;;15.50;73.00;;;;;;5063608;28;20016;-68
2021/05/30 06:06:50;;;;;;;8.63;5.53;;;15.50;73.10;;;;;;5061690;28;20059;-68
2021/05/30 06:09:19;;;;;;;7.70;5.03;;;15.50;73.10;;;;;;5064360;28;20058;-68
2021/05/30 06:11:47;;;;;;;6.28;4.65;;;15.50;73.10;;;;;;5062611;28;20032;-68
2021/05/30 06:14:13;;;;;;;8.07;5.57;;;15.50;73.20;;;;;;5060024;28;20092;-68
2021/05/30 06:16:42;;;;;;;8.48;5.88;;;15.50;73.30;;;;;;5059448;28;20024;-68
2021/05/30 06:19:09;;;;;;;9.13;5.72;;;15.40;73.30;;;;;;5059966;28;20090;-68
2021/05/30 06:21:35;;;;;;;10.25;6.30;;;15.40;73.40;;;;;;5064397;28;20410;-68
2021/05/30 06:24:03;;;;;;;12.32;8.52;;;15.50;73.60;;;;;;5061350;28;20025;-68
2021/05/30 06:26:31;;;;;;;9.43;5.55;;;15.40;73.60;;;;;;5064931;28;20097;-68
2021/05/30 06:28:57;;;;;;;10.05;6.07;;;15.50;73.80;;;;;;5063750;28;20020;-68
2021/05/30 06:31:24;;;;;;;7.43;5.05;;;15.50;73.90;;;;;;5061819;28;20009;-70
2021/05/30 06:33:51;;;;;;;9.27;5.90;;;15.50;74.10;;;;;;5062939;28;20036;-70
2021/05/30 06:36:19;;;;;;;10.93;5.93;;;15.50;74.20;;;;;;5062298;28;20021;-69
2021/05/30 06:38:46;;;;;;;10.07;5.45;;;15.50;74.30;;;;;;5063164;28;20024;-73
2021/05/30 06:41:13;;;;;;;9.60;5.85;;;15.50;74.50;;;;;;5061087;28;20024;-74
2021/05/30 06:43:41;;;;;;;7.35;4.60;;;15.50;74.60;;;;;;5064162;28;20029;-72
2021/05/30 06:46:09;;;;;;;8.15;4.80;;;15.50;74.80;;;;;;5064869;28;20024;-72
2021/05/30 06:48:37;;;;;;;9.05;5.05;;;15.50;74.90;;;;;;5062700;28;20095;-77
2021/05/30 06:51:16;;;;;;;9.52;6.97;;;15.50;75.30;;;;;;5060942;28;20023;-72
2021/05/30 06:53:46;;;;;;;16.63;11.82;;;15.40;75.50;;;;;;5059197;28;20468;-70
2021/05/30 06:56:15;;;;;;;13.55;9.40;;;15.50;75.80;;;;;;5064792;28;20384;-72
2021/05/30 06:58:43;;;;;;;10.20;8.05;;;15.50;76.10;;;;;;5060101;28;20009;-72
2021/05/30 07:01:16;;;;;;;9.93;7.07;;;15.50;76.30;;;;;;5059722;28;20014;-72
2021/05/30 07:03:42;;;;;;;9.63;6.97;;;15.50;76.50;;;;;;5061789;28;20019;-73
2021/05/30 07:06:09;;;;;;;13.75;5.85;;;15.50;76.80;;;;;;5062970;28;20048;-70
2021/05/30 07:08:35;;;;;;;12.07;6.70;;;15.50;76.90;;;;;;5066444;28;20020;-75
2021/05/30 07:11:02;;;;;;;11.75;5.82;;;15.60;77.20;;;;;;5064872;28;20020;-69
2021/05/30 07:13:28;;;;;;;11.20;5.43;;;15.60;77.40;;;;;;5065416;28;20082;-69
2021/05/30 07:15:55;;;;;;;10.65;6.55;;;15.60;77.60;;;;;;5065295;28;20032;-69
2021/05/30 07:18:22;;;;;;;8.23;5.78;;;15.60;77.70;;;;;;5069080;28;20768;-73
2021/05/30 07:20:51;;;;;;;9.15;6.00;;;15.70;78.10;;;;;;5068256;28;20376;-72
2021/05/30 07:23:18;;;;;;;10.77;6.50;;;15.60;78.10;;;;;;5067935;28;20423;-71
2021/05/30 07:25:45;;;;;;;11.70;6.43;;;15.70;78.40;;;;;;5065261;28;20029;-72
2021/05/30 07:28:12;;;;;;;9.80;5.80;;;15.70;78.50;;;;;;5065217;28;20048;-72
2021/05/30 07:30:38;;;;;;;9.07;5.60;;;15.70;78.80;;;;;;5063711;28;20098;-72
2021/05/30 07:33:07;;;;;;;8.63;6.15;;;15.70;78.90;;;;;;5064569;28;20094;-76
2021/05/30 07:35:35;;;;;;;7.88;5.75;;;15.80;79.10;;;;;;5067882;28;20024;-78
2021/05/30 07:38:03;;;;;;;9.82;4.97;;;15.80;79.30;;;;;;5065093;28;20103;-73
2021/05/30 07:40:30;;;;;;;13.98;4.80;;;15.90;79.50;;;;;;5067487;28;20105;-73
2021/05/30 07:42:56;;;;;;;13.70;5.88;;;15.90;79.70;;;;;;5068917;28;20028;-79
2021/05/30 07:45:23;;;;;;;10.90;5.18;;;15.90;80.00;;;;;;5067551;28;20013;-73
2021/05/30 07:47:50;;;;;;;10.45;5.53;;;16.00;80.10;;;;;;5067408;28;20393;-72
2021/05/30 07:50:18;;;;;;;12.60;5.70;;;16.00;80.30;;;;;;5062947;28;20028;-71
2021/05/30 07:52:44;;;;;;;9.57;6.15;;;16.00;81.10;;;;;;5067053;28;20021;-80
2021/05/30 07:55:11;;;;;;;12.90;7.47;;;16.00;80.60;;;;;;5058746;28;20446;-75
2021/05/30 07:58:17;;;;;;;12.05;8.45;;;16.10;80.80;;;;;;5066836;28;20395;-79
2021/05/30 08:01:23;;;;;;;12.38;7.75;;;16.10;81.00;;;;;;5048329;28;20107;-73
2021/05/30 08:04:30;;;;;;;15.05;8.05;;;16.20;81.20;;;;;;5060513;28;20017;-74
2021/05/30 08:07:36;;;;;;;11.48;7.18;;;16.20;81.40;;;;;;5067325;28;20074;-73
2021/05/30 08:10:42;;;;;;;14.48;7.30;;;16.20;81.50;;;;;;5063389;28;20021;-73
2021/05/30 08:13:48;;;;;;;15.50;7.57;;;16.30;81.80;;;;;;5065574;28;20028;-73
2021/05/30 08:16:54;;;;;;;14.25;6.00;;;16.30;81.90;;;;;;5065914;28;20041;-74
2021/05/30 08:20:00;;;;;;;9.57;5.25;;;16.40;82.10;;;;;;5065287;28;20023;-72
2021/05/30 08:23:06;;;;;;;14.77;6.53;;;16.40;82.20;;;;;;5048042;28;20090;-75
2021/05/30 08:26:12;;;;;;;10.02;4.72;;;16.40;82.30;;;;;;5064788;28;20121;-71
2021/05/30 08:29:18;;;;;;;10.57;5.45;;;16.50;82.50;;;;;;5065113;28;20452;-71
2021/05/30 08:32:24;;;;;;;12.50;4.70;;;16.50;82.50;;;;;;5066570;28;20052;-72
2021/05/30 08:35:31;;;;;;;10.68;4.20;;;16.60;82.60;;;;;;5058065;28;20024;-73
2021/05/30 08:38:37;;;;;;;5.55;3.65;;;16.60;82.70;;;;;;5063293;28;20025;-70
2021/05/30 08:41:43;;;;;;;10.23;3.50;;;16.70;82.80;;;;;;5064586;28;20028;-74
2021/05/30 08:44:49;;;;;;;12.48;4.65;;;16.70;82.80;;;;;;5064611;28;20066;-72
2021/05/30 08:47:55;;;;;;;12.88;3.35;;;16.80;83.00;;;;;;5046126;28;20376;-69
2021/05/30 08:51:05;;;;;;;5.38;3.03;;;16.80;82.90;;;;;;5063788;28;20021;-70
2021/05/30 08:54:11;;;;;;;6.68;3.00;;;16.90;83.00;;;;;;5067322;28;20096;-72
2021/05/30 08:57:17;;;;;;;10.90;3.38;;;16.90;83.10;;;;;;5063914;28;20476;-73
2021/05/30 09:00:33;;;;;;;10.30;2.75;;;17.00;83.20;;;;;;5064326;28;20028;-74
2021/05/30 09:03:54;;;;;;;7.90;3.45;;;17.00;83.40;;;;;;5065102;28;20033;-71
2021/05/30 09:07:03;;;;;;;6.90;2.85;;;17.00;84.20;;;;;;5056900;28;20025;-73
2021/05/30 09:10:15;;;;;;;11.13;3.13;;;17.10;83.80;;;;;;5059945;28;20035;-73
2021/05/30 09:13:07;;;;;;;12.07;3.75;;;17.10;84.30;;;;;;5059027;28;20029;-72
2021/05/30 09:16:20;;;;;;;10.07;3.78;;;17.20;84.70;;;;;;5057345;28;20081;-71
2021/05/30 09:18:46;;;;;;;6.88;2.80;;;17.20;84.80;;;;;;5060976;28;20020;-73
2021/05/30 09:21:14;;;;;;;26.33;17.55;;;17.20;85.50;;;;;;5062341;28;20024;-72
2021/05/30 09:23:42;;;;;;;17.88;12.90;;;17.30;84.80;;;;;;5061705;28;20397;-74
2021/05/30 09:26:24;;;;;;;20.55;11.88;;;17.30;84.80;;;;;;5061772;28;20037;-72
2021/05/30 09:29:11;;;;;;;18.45;10.27;;;17.30;84.90;;;;;;5063112;28;20025;-74
2021/05/30 09:32:04;;;;;;;17.98;11.88;;;17.30;85.60;;;;;;5064611;28;20024;-71
2021/05/30 09:34:36;;;;;;;16.90;9.57;;;17.30;84.90;;;;;;5067609;28;20040;-74
2021/05/30 09:37:04;;;;;;;19.10;7.50;;;17.30;84.90;;;;;;5067350;28;20033;-74
2021/05/30 09:39:49;;;;;;;12.10;6.68;;;17.40;85.30;;;;;;5064906;28;20028;-74
2021/05/30 09:42:41;;;;;;;15.02;9.02;;;17.40;85.50;;;;;;5063100;28;20015;-71
2021/05/30 09:45:11;;;;;;;14.10;7.88;;;17.40;85.40;;;;;;5061293;28;20032;-74
2021/05/30 09:47:44;;;;;;;20.25;13.32;;;17.40;85.40;;;;;;5052783;28;20403;-72
2021/05/30 09:50:17;;;;;;;11.95;8.60;;;17.40;85.40;;;;;;5066987;28;20016;-76
2021/05/30 09:52:46;;;;;;;17.08;8.43;;;17.40;85.30;;;;;;5065511;28;20042;-71
2021/05/30 09:55:17;;;;;;;13.88;7.82;;;17.50;85.50;;;;;;5062105;28;20111;-70
2021/05/30 09:58:23;;;;;;;12.35;6.25;;;17.50;85.60;;;;;;5070574;28;20492;-74
2021/05/30 10:00:52;;;;;;;11.38;5.03;;;17.60;85.60;;;;;;5062840;28;20021;-71
2021/05/30 10:03:19;;;;;;;9.95;4.57;;;17.60;85.30;;;;;;5062521;28;20013;-74
2021/05/30 10:05:46;;;;;;;12.45;4.45;;;17.70;84.90;;;;;;5065286;28;20103;-72
2021/05/30 10:08:15;;;;;;;12.82;4.13;;;17.70;84.40;;;;;;5061332;28;20025;-71
2021/05/30 10:10:42;;;;;;;11.23;6.45;;;17.70;84.00;;;;;;5062227;28;20020;-72
2021/05/30 10:13:10;;;;;;;9.85;6.10;;;17.80;83.80;;;;;;5062597;28;20027;-77
2021/05/30 10:15:37;;;;;;;13.48;5.22;;;17.90;83.70;;;;;;5063460;28;20573;-73
2021/05/30 10:18:28;;;;;;;13.05;4.38;;;17.90;83.60;;;;;;5062522;28;20017;-72
2021/05/30 10:20:56;;;;;;;12.05;3.70;;;18.00;83.10;;;;;;5060345;28;20021;-73
2021/05/30 10:23:23;;;;;;;8.45;3.58;;;18.00;82.60;;;;;;5062412;28;20104;-75
2021/05/30 10:25:50;;;;;;;11.20;3.78;;;18.00;82.10;;;;;;5063591;28;20551;-71
2021/05/30 10:28:59;;;;;;;12.48;3.80;;;18.10;81.90;;;;;;5060415;28;20136;-74
2021/05/30 10:32:05;;;;;;;9.20;3.38;;;18.10;81.80;;;;;;5039943;28;20036;-75
2021/05/30 10:35:10;;;;;;;6.85;3.50;;;18.20;81.70;;;;;;5055876;28;20685;-76
2021/05/30 10:38:01;;;;;;;12.52;3.58;;;18.30;80.70;;;;;;5058310;28;20060;-70
2021/05/30 10:40:55;;;;;;;11.38;3.88;;;18.30;80.40;;;;;;5062018;28;20036;-72
2021/05/30 10:43:38;;;;;;;15.73;6.65;;;18.40;80.00;;;;;;5036361;28;20021;-71
2021/05/30 10:46:44;;;;;;;11.15;4.57;;;18.40;79.40;;;;;;5060402;28;20025;-81
2021/05/30 10:49:50;;;;;;;12.27;4.68;;;18.50;78.90;;;;;;5059900;28;20044;-71
2021/05/30 10:53:15;;;;;;;9.68;4.85;;;18.60;79.10;;;;;;5061374;28;20538;-78
2021/05/30 10:55:41;;;;;;;8.65;4.10;;;18.70;78.80;;;;;;5046837;28;20105;-74
2021/05/30 10:58:53;;;;;;;10.13;2.85;;;18.70;78.50;;;;;;5066680;28;20025;-77
2021/05/30 11:01:35;;;;;;;4.53;2.60;;;18.80;77.50;;;;;;5059371;28;20414;-78
2021/05/30 11:04:23;;;;;;;13.43;3.33;;;18.90;76.60;;;;;;5061925;28;20070;-76
2021/05/30 11:07:18;;;;;;;7.95;3.70;;;18.90;76.70;;;;;;5066007;28;20093;-75
2021/05/30 11:09:53;;;;;;;9.20;2.20;;;19.00;75.90;;;;;;5062421;28;20092;-73
2021/05/30 11:12:24;;;;;;;8.50;2.53;;;19.00;75.00;;;;;;5063889;28;20017;-78
2021/05/30 11:15:13;;;;;;;7.18;2.40;;;19.10;74.80;;;;;;5066236;28;20020;-76
2021/05/30 11:17:51;;;;;;;5.15;2.38;;;19.10;74.80;;;;;;5061633;28;20020;-74
2021/05/30 11:20:20;;;;;;;11.05;4.80;;;19.20;74.50;;;;;;5062381;28;20108;-75
2021/05/30 11:22:50;;;;;;;26.67;17.80;;;19.30;74.40;;;;;;5058207;28;20029;-72
2021/05/30 11:25:36;;;;;;;11.88;7.20;;;19.30;74.40;;;;;;5059760;28;20044;-73
2021/05/30 11:28:45;;;;;;;13.82;5.57;;;19.40;73.80;;;;;;5059815;28;20108;-73
2021/05/30 11:31:51;;;;;;;10.18;4.47;;;19.50;73.40;;;;;;5054964;28;20123;-72
2021/05/30 11:34:19;;;;;;;10.07;4.28;;;19.50;73.60;;;;;;5061521;28;20033;-72
2021/05/30 11:37:25;;;;;;;8.88;4.20;;;19.60;73.30;;;;;;5064472;28;20086;-72
2021/05/30 11:40:34;;;;;;;7.15;3.03;;;19.60;72.70;;;;;;5061084;28;20021;-73
2021/05/30 11:43:40;;;;;;;10.02;3.70;;;19.70;71.80;;;;;;5059216;28;20361;-77
2021/05/30 11:46:14;;;;;;;12.45;4.47;;;19.70;70.40;;;;;;5061809;28;20504;-73
2021/05/30 11:49:24;;;;;;;9.13;5.35;;;19.70;70.30;;;;;;5062119;28;20087;-74
2021/05/30 11:52:46;;;;;;;10.88;4.18;;;19.80;70.20;;;;;;5046096;28;20099;-81
2021/05/30 11:55:16;;;;;;;8.52;2.95;;;19.90;70.10;;;;;;5062420;28;20044;-83
2021/05/30 11:58:28;;;;;;;7.80;3.22;;;19.90;69.10;;;;;;5054650;28;20021;-75
2021/05/30 12:01:34;;;;;;;8.30;3.33;;;20.00;68.70;;;;;;5046383;28;20114;-75
2021/05/30 12:04:30;;;;;;;6.63;2.25;;;20.00;69.10;;;;;;5065987;28;20021;-76
2021/05/30 12:07:36;;;;;;;5.80;2.22;;;20.10;69.30;;;;;;5067020;28;20406;-76
2021/05/30 12:10:42;;;;;;;12.13;5.40;;;20.10;69.10;;;;;;5058389;28;20028;-77
2021/05/30 12:13:28;;;;;;;10.27;3.90;;;20.10;69.20;;;;;;5057527;28;20025;-76
2021/05/30 12:16:37;;;;;;;8.05;3.78;;;20.10;69.60;;;;;;5057715;28;20047;-76
2021/05/30 12:19:43;;;;;;;6.00;2.80;;;20.10;69.80;;;;;;5060877;28;20027;-80
2021/05/30 12:22:49;;;;;;;9.32;4.38;;;20.10;69.70;;;;;;5052680;28;20044;-76
2021/05/30 12:25:44;;;;;;;13.57;3.33;;;20.10;70.00;;;;;;5057913;28;20072;-75
2021/05/30 12:28:53;;;;;;;10.10;2.92;;;20.20;70.20;;;;;;5037954;28;20029;-72
2021/05/30 12:31:59;;;;;;;8.02;3.47;;;20.20;70.10;;;;;;5061714;28;20028;-72
2021/05/30 12:35:14;;;;;;;7.47;2.95;;;20.20;69.60;;;;;;5062342;28;20029;-73
2021/05/30 12:38:20;;;;;;;16.88;11.40;;;20.20;70.00;;;;;;5062990;28;20410;-72
2021/05/30 12:41:26;;;;;;;9.18;3.58;;;20.20;70.00;;;;;;5038960;28;20684;-79
2021/05/30 12:44:32;;;;;;;8.02;3.03;;;20.20;70.20;;;;;;5062025;28;20039;-75
2021/05/30 12:47:12;;;;;;;8.63;2.78;;;20.20;69.50;;;;;;5061652;28;20029;-74
2021/05/30 12:50:18;;;;;;;8.30;3.97;;;20.20;68.80;;;;;;5063916;28;20067;-72
2021/05/30 12:53:11;;;;;;;9.63;4.63;;;20.20;68.60;;;;;;5067079;28;20028;-76
2021/05/30 12:56:00;;;;;;;13.15;5.32;;;20.20;68.60;;;;;;5070842;28;20044;-71
2021/05/30 12:58:27;;;;;;;11.82;4.32;;;20.20;68.50;;;;;;5069249;28;20365;-74
2021/05/30 13:00:53;;;;;;;7.68;2.95;;;20.20;68.10;;;;;;5067643;28;20344;-69
2021/05/30 13:03:26;;;;;;;7.22;3.17;;;20.20;67.80;;;;;;5069124;28;20375;-70
2021/05/30 13:06:29;;;;;;;5.72;2.28;;;20.20;67.50;;;;;;5067515;28;20483;-73
2021/05/30 13:09:03;;;;;;;12.23;3.95;;;20.20;67.50;;;;;;5067094;28;20441;-69
2021/05/30 13:11:32;;;;;;;4.13;2.10;;;20.20;67.80;;;;;;5049532;28;20520;-70
2021/05/30 13:13:58;;;;;;;7.13;4.40;;;20.20;67.70;;;;;;5067767;28;20115;-77
2021/05/30 13:16:29;;;;;;;7.40;4.45;;;20.20;67.70;;;;;;5068336;28;20047;-72
2021/05/30 13:18:57;;;;;;;15.13;5.60;;;20.10;67.60;;;;;;5069017;28;20024;-73
2021/05/30 13:21:30;;;;;;;15.70;8.88;;;20.20;67.70;;;;;;5069676;28;20016;-78
2021/05/30 13:24:08;;;;;;;12.45;5.07;;;20.10;67.40;;;;;;5049146;28;20017;-74
2021/05/30 13:26:50;;;;;;;7.80;3.30;;;20.20;67.10;;;;;;5064796;28;20372;-71
2021/05/30 13:29:21;;;;;;;6.30;3.05;;;20.20;66.70;;;;;;5060734;28;20016;-71